Terminal Aerodrome Forecast
Issued by NWS

Current Version | Previous Version | Text Only | Print | Product List | Glossary On
Versions: 1 2 3 4 5 6 7 8 9 10 11 12 13
729
FTUS45 KABQ 241139
TAFAEG
TAF
KAEG 241139Z 2412/2512 VRB05KT P6SM SCT090
     FM241700 20010G16KT P6SM SKC
     FM250100 33006KT P6SM SKC=

USA.gov is the U.S. government's official web portal to all federal, state and local government web resources and services.